Time;durP1;ratioP1;P1;durP2;ratioP2;P2;SDS_P1;SDS_P2;PMS_P1;PMS_P2;Temp;Humidity;BMP_temperature;BMP_pressure;BME280_temperature;BME280_humidity;BME280_pressure;Samples;Min_cycle;Max_cycle;Signal;HPM_P1;HPM_P2
2021/12/07 00:00:34;;;;;;;;;4.00;1.00;;;;;5.76;75.06;100767.25;5005078;28;45390;-73
2021/12/07 00:02:59;;;;;;;;;6.00;2.50;;;;;5.78;75.33;100771.59;5013148;28;45455;-73
2021/12/07 00:05:25;;;;;;;;;2.50;1.00;;;;;5.64;74.51;100758.66;5013931;28;45561;-73
2021/12/07 00:07:51;;;;;;;;;4.25;0.00;;;;;5.60;74.45;100775.34;5014993;28;45496;-73
2021/12/07 00:10:17;;;;;;;;;4.50;0.25;;;;;5.67;75.22;100781.38;5014532;28;46154;-74
2021/12/07 00:12:44;;;;;;;;;3.50;2.50;;;;;5.64;75.88;100765.66;5013829;28;45253;-73
2021/12/07 00:15:12;;;;;;;;;4.50;2.00;;;;;5.75;74.81;100787.41;5025042;28;45553;-74
2021/12/07 00:17:38;;;;;;;;;3.00;1.50;;;;;5.82;75.37;100806.56;5013467;28;45340;-74
2021/12/07 00:20:13;;;;;;;;;2.00;2.00;;;;;5.60;74.17;100777.09;5002750;28;46621;-74
2021/12/07 00:22:39;;;;;;;;;5.50;2.00;;;;;5.57;75.06;100785.03;5013380;28;46265;-73
2021/12/07 00:25:08;;;;;;;;;5.00;1.25;;;;;5.72;74.25;100821.56;5014114;28;45542;-74
2021/12/07 00:27:34;;;;;;;;;4.50;1.00;;;;;5.62;75.10;100796.34;5014139;28;47809;-74
2021/12/07 00:30:00;;;;;;;;;1.25;1.00;;;;;5.70;74.79;100818.09;5013056;28;46156;-74
2021/12/07 00:32:31;;;;;;;;;3.00;2.00;;;;;5.60;74.33;100804.22;5012265;28;45526;-74
2021/12/07 00:37:48;;;;;;;;;5.50;2.50;;;;;5.65;74.80;100814.69;5011057;28;45416;-73
2021/12/07 00:40:17;;;;;;;;;1.75;1.75;;;;;5.65;75.02;100805.03;5012488;28;47178;-73
2021/12/07 00:42:43;;;;;;;;;6.50;2.25;;;;;5.48;74.58;100783.38;5014146;28;45311;-73
2021/12/07 00:45:10;;;;;;;;;3.50;3.00;;;;;5.52;74.69;100802.59;5013856;28;45379;-73
2021/12/07 00:47:35;;;;;;;;;5.75;2.00;;;;;5.62;74.38;100812.09;4996287;28;45700;-73
2021/12/07 00:50:01;;;;;;;;;4.50;3.00;;;;;5.35;74.23;100759.03;5012725;28;47681;-73
2021/12/07 00:52:27;;;;;;;;;2.25;0.25;;;;;5.60;74.98;100808.63;5013465;28;45339;-73
2021/12/07 00:54:52;;;;;;;;;7.50;4.00;;;;;5.40;74.23;100772.09;5012013;28;45544;-73
2021/12/07 00:57:17;;;;;;;;;7.00;3.25;;;;;5.44;73.99;100782.56;5001801;28;45323;-73
2021/12/07 00:59:43;;;;;;;;;7.00;5.50;;;;;5.37;74.22;100778.25;5007048;28;45994;-73
2021/12/07 01:02:08;;;;;;;;;3.50;2.00;;;;;5.62;74.26;100815.59;5010035;28;45466;-74
2021/12/07 01:04:34;;;;;;;;;6.00;3.50;;;;;5.57;74.92;100811.28;5014172;28;45693;-74
2021/12/07 01:07:04;;;;;;;;;7.75;4.00;;;;;5.59;74.16;100831.38;5013602;28;45271;-74
2021/12/07 01:25:54;;;;;;;;;7.50;5.25;;;;;5.31;73.26;100874.56;5010956;28;45494;-74
2021/12/07 01:28:43;;;;;;;;;8.75;6.00;;;;;5.28;74.68;100870.22;5015315;28;45347;-74
2021/12/07 01:31:25;;;;;;;;;16.50;15.00;;;;;4.99;73.37;100820.66;5013951;28;46155;-73
2021/12/07 01:36:51;;;;;;;;;18.75;15.50;;;;;5.16;73.95;100863.34;5016600;28;45383;-74
2021/12/07 01:45:22;;;;;;;;;19.00;15.00;;;;;5.06;74.28;100873.94;5001619;28;45324;-73
2021/12/07 01:47:50;;;;;;;;;11.00;9.25;;;;;5.10;73.71;100889.63;5016061;28;45436;-73
2021/12/07 02:01:05;;;;;;;;;13.25;10.00;;;;;5.01;73.16;100893.22;4978441;28;45424;-73
2021/12/07 02:03:31;;;;;;;;;30.75;16.00;;;;;5.11;73.25;100896.59;4977459;28;46257;-73
2021/12/07 02:05:57;;;;;;;;;8.25;7.00;;;;;5.05;73.23;100895.81;4975219;28;45423;-74
2021/12/07 02:08:23;;;;;;;;;15.25;8.00;;;;;5.01;73.65;100885.34;4974753;28;45487;-74
2021/12/07 02:10:53;;;;;;;;;17.25;9.00;;;;;5.15;74.23;100911.47;4979374;28;45665;-74
2021/12/07 02:14:01;;;;;;;;;17.75;11.00;;;;;4.89;74.49;100863.63;4977339;28;46550;-74
2021/12/07 02:16:05;;;;;;;;;13.25;7.25;;;;;5.07;74.05;100888.81;4979314;28;45766;-74
2021/12/07 02:18:30;;;;;;;;;24.00;20.25;;;;;5.15;73.36;100908.84;4985630;28;45627;-74
2021/12/07 02:20:56;;;;;;;;;14.50;3.00;;;;;5.08;73.62;100907.13;4974779;28;45440;-74
2021/12/07 02:23:21;;;;;;;;;20.00;16.50;;;;;4.98;74.05;100901.09;4974934;28;45565;-73
2021/12/07 02:25:46;;;;;;;;;11.50;10.75;;;;;5.15;72.69;100919.34;4976978;28;45389;-74
2021/12/07 02:28:16;;;;;;;;;9.75;6.00;;;;;5.15;74.46;100928.97;4975161;28;45577;-73
2021/12/07 02:30:43;;;;;;;;;12.25;11.25;;;;;5.13;73.28;100931.59;4976298;28;45870;-74
2021/12/07 02:33:10;;;;;;;;;7.00;7.00;;;;;5.18;74.41;100945.53;4960476;28;47654;-73
2021/12/07 02:35:36;;;;;;;;;6.75;3.00;;;;;5.06;73.90;100922.03;4969639;28;45332;-73
2021/12/07 02:38:02;;;;;;;;;5.25;4.00;;;;;5.07;73.71;100920.28;4994522;28;45394;-74
2021/12/07 02:40:28;;;;;;;;;3.50;2.00;;;;;4.85;73.35;100881.09;5014976;28;45305;-73
2021/12/07 02:42:53;;;;;;;;;3.00;1.00;;;;;5.07;73.19;100917.66;5017028;28;45526;-74
2021/12/07 02:45:21;;;;;;;;;3.75;1.75;;;;;5.12;72.89;100927.22;5024514;28;45309;-74
2021/12/07 02:47:47;;;;;;;;;3.75;2.00;;;;;5.12;73.98;100929.00;5023209;28;45208;-74
2021/12/07 02:50:14;;;;;;;;;7.25;1.75;;;;;5.01;72.75;100905.47;5013924;28;45289;-74
2021/12/07 02:52:40;;;;;;;;;6.00;1.75;;;;;5.11;74.42;100922.84;5002072;28;47168;-73
2021/12/07 02:55:07;;;;;;;;;3.50;1.50;;;;;5.05;73.96;100919.41;5011447;28;45307;-74
2021/12/07 02:57:33;;;;;;;;;5.00;2.25;;;;;5.02;73.64;100912.44;5015258;28;45402;-73
2021/12/07 03:00:09;;;;;;;;;7.00;2.00;;;;;5.08;73.00;100928.13;5014682;28;45296;-73
2021/12/07 03:02:41;;;;;;;;;5.50;2.00;;;;;5.07;73.77;100925.53;5000694;28;45598;-73
2021/12/07 03:05:19;;;;;;;;;5.25;2.25;;;;;4.90;73.74;100902.91;5012135;28;45473;-73
2021/12/07 03:26:34;;;;;;;;;12.25;2.25;;;;;5.04;73.54;100936.03;5001406;28;45462;-73
2021/12/07 03:29:00;;;;;;;;;13.00;5.00;;;;;4.85;73.41;100902.06;5013543;28;45668;-73
2021/12/07 03:31:26;;;;;;;;;6.00;2.50;;;;;4.88;72.62;100902.09;5012917;28;45526;-73
2021/12/07 03:33:54;;;;;;;;;5.50;1.75;;;;;4.99;73.90;100928.19;5017159;28;47287;-73
2021/12/07 03:36:20;;;;;;;;;4.75;3.50;;;;;4.92;73.61;100926.53;5005167;28;45580;-73
2021/12/07 03:38:46;;;;;;;;;5.75;2.50;;;;;4.95;73.10;100932.59;5013834;28;45294;-73
2021/12/07 03:41:12;;;;;;;;;6.75;3.00;;;;;4.90;73.47;100931.75;5015307;28;45240;-73
2021/12/07 03:43:38;;;;;;;;;8.50;5.25;;;;;4.95;73.09;100947.47;5013305;28;45453;-73
2021/12/07 03:46:04;;;;;;;;;6.00;4.25;;;;;4.79;72.86;100910.00;5014767;28;45310;-73
2021/12/07 03:48:30;;;;;;;;;9.25;6.75;;;;;4.94;73.18;100941.38;5013993;28;45502;-73
2021/12/07 03:50:55;;;;;;;;;11.50;9.25;;;;;4.72;72.80;100911.81;5005786;28;45387;-73
2021/12/07 03:53:21;;;;;;;;;13.25;9.25;;;;;4.67;74.42;100897.84;5007156;28;45477;-73
2021/12/07 03:55:47;;;;;;;;;18.75;12.00;;;;;4.97;73.65;100959.72;5002658;28;45309;-73
2021/12/07 03:58:13;;;;;;;;;6.00;4.50;;;;;4.89;73.46;100960.66;5012030;28;45444;-73
2021/12/07 04:00:43;;;;;;;;;11.00;9.00;;;;;4.95;73.58;100964.09;5010165;28;45656;-73
2021/12/07 04:03:12;;;;;;;;;8.50;5.25;;;;;4.78;73.33;100932.72;4998469;28;46225;-73
2021/12/07 04:05:47;;;;;;;;;7.75;6.00;;;;;4.94;72.53;100959.72;5010572;28;45463;-73
2021/12/07 04:08:14;;;;;;;;;10.00;6.00;;;;;4.78;73.32;100947.59;5011721;28;45357;-73
2021/12/07 04:10:40;;;;;;;;;6.00;4.00;;;;;4.91;73.38;100985.97;5010284;28;45525;-73
2021/12/07 04:13:05;;;;;;;;;9.50;5.00;;;;;4.50;73.72;100905.84;5014184;28;46082;-73
2021/12/07 04:15:30;;;;;;;;;10.00;7.50;;;;;4.69;73.62;100942.44;5014350;28;45478;-73
2021/12/07 04:17:56;;;;;;;;;16.50;10.00;;;;;4.87;72.85;100975.50;5014339;28;45817;-73
2021/12/07 04:20:21;;;;;;;;;9.00;4.50;;;;;4.87;72.79;100976.38;5013562;28;45405;-73
2021/12/07 04:22:48;;;;;;;;;6.50;5.50;;;;;4.76;72.63;100949.34;5014145;28;46650;-73
2021/12/07 04:25:15;;;;;;;;;6.75;3.50;;;;;4.88;72.96;100978.13;5009717;28;45479;-73
2021/12/07 04:27:41;;;;;;;;;8.00;5.00;;;;;4.88;72.42;100979.84;5007350;28;45686;-73
2021/12/07 04:30:30;;;;;;;;;6.75;6.25;;;;;4.85;73.00;100990.38;5025508;28;45468;-73
2021/12/07 04:32:56;;;;;;;;;15.75;9.50;;;;;4.83;72.90;100979.91;5001210;28;45617;-73
2021/12/07 04:35:22;;;;;;;;;11.00;4.00;;;;;4.67;72.09;100963.38;5001913;28;45450;-73
2021/12/07 04:37:48;;;;;;;;;15.50;7.50;;;;;4.78;72.50;100979.06;5015002;28;45485;-73
2021/12/07 04:40:21;;;;;;;;;10.25;5.50;;;;;4.78;73.31;100961.56;5009037;28;45508;-73
2021/12/07 04:42:47;;;;;;;;;8.00;5.00;;;;;4.82;74.23;100966.78;5013881;28;45469;-73
2021/12/07 04:45:27;;;;;;;;;5.75;3.00;;;;;4.82;73.84;100969.41;5013957;28;45444;-73
2021/12/07 04:48:10;;;;;;;;;6.00;3.50;;;;;4.69;73.88;100945.03;5013269;28;45449;-73
2021/12/07 04:59:09;;;;;;;;;9.25;3.50;;;;;4.75;73.23;100971.22;5029380;28;45539;-73
2021/12/07 05:01:34;;;;;;;;;6.00;5.25;;;;;4.72;73.97;100973.88;5017980;28;45298;-73
2021/12/07 05:04:05;;;;;;;;;6.25;5.00;;;;;4.76;73.08;100978.19;5034779;28;46650;-73
2021/12/07 05:06:33;;;;;;;;;6.50;5.00;;;;;4.70;74.51;100967.75;5027913;28;45449;-73
2021/12/07 05:09:07;;;;;;;;;11.75;5.00;;;;;4.60;74.99;100953.84;5025234;28;45525;-73
2021/12/07 05:14:19;;;;;;;;;8.25;6.25;;;;;4.71;73.85;100980.88;5031587;28;45749;-73
2021/12/07 05:25:01;;;;;;;;;5.00;4.00;;;;;4.57;75.13;101005.41;5034009;28;45851;-74
2021/12/07 05:38:43;;;;;;;;;3.75;2.00;;;;;4.44;74.91;101002.88;4957824;28;45429;-74
2021/12/07 05:41:08;;;;;;;;;2.00;1.00;;;;;4.22;75.50;100967.16;4979099;28;45536;-74
2021/12/07 05:43:35;;;;;;;;;6.25;1.25;;;;;4.41;75.18;101004.59;4978614;28;45421;-74
2021/12/07 05:46:01;;;;;;;;;3.00;2.00;;;;;4.40;75.73;100990.63;4977385;28;48255;-74
2021/12/07 05:48:27;;;;;;;;;6.00;2.75;;;;;4.38;75.45;100987.13;4977731;28;45666;-74
2021/12/07 05:50:52;;;;;;;;;5.25;2.00;;;;;4.34;75.89;100977.56;4975341;28;45473;-74
2021/12/07 05:53:18;;;;;;;;;6.00;1.50;;;;;4.04;75.88;100940.16;4976301;28;45345;-74
2021/12/07 05:55:43;;;;;;;;;2.00;1.50;;;;;4.26;75.13;100987.19;4978584;28;45574;-74
2021/12/07 05:58:09;;;;;;;;;5.00;2.50;;;;;4.16;75.71;100964.56;4981910;28;45346;-74
2021/12/07 06:00:36;;;;;;;;;5.50;4.00;;;;;4.10;75.85;100955.84;4996763;28;44834;-73
2021/12/07 06:03:05;;;;;;;;;5.00;3.00;;;;;4.19;76.50;100982.88;5018958;28;45602;-74
2021/12/07 06:05:31;;;;;;;;;6.25;3.50;;;;;4.05;76.12;100967.22;5014991;28;48411;-74
2021/12/07 06:07:57;;;;;;;;;6.50;6.00;;;;;3.96;76.74;100959.41;5010194;28;45500;-74
2021/12/07 06:10:23;;;;;;;;;9.75;5.00;;;;;4.10;75.61;100984.66;5018427;28;45543;-74
2021/12/07 06:12:49;;;;;;;;;7.00;5.00;;;;;4.07;76.04;100983.81;5015209;28;45315;-74
2021/12/07 06:15:18;;;;;;;;;10.00;5.00;;;;;3.86;75.77;100962.03;5013780;28;46082;-74
2021/12/07 06:17:44;;;;;;;;;18.50;6.75;;;;;4.02;75.41;100980.31;5014500;28;45508;-74
2021/12/07 06:20:10;;;;;;;;;10.00;7.00;;;;;4.02;74.67;100986.41;5016249;28;45473;-73
2021/12/07 06:22:35;;;;;;;;;15.75;12.00;;;;;3.78;75.11;100949.84;5000410;28;45415;-73
2021/12/07 06:25:01;;;;;;;;;33.50;27.00;;;;;4.03;76.11;100989.91;5011370;28;45532;-73
2021/12/07 06:27:26;;;;;;;;;23.75;16.25;;;;;3.86;75.54;100972.53;5015105;28;45659;-74
2021/12/07 06:29:52;;;;;;;;;12.25;11.00;;;;;3.81;76.43;100957.69;5015970;28;45354;-73
2021/12/07 06:32:18;;;;;;;;;11.00;10.50;;;;;4.06;75.80;100988.16;5008178;28;45292;-73
2021/12/07 06:34:44;;;;;;;;;19.25;6.50;;;;;4.02;76.35;100972.47;5013691;28;46119;-73
2021/12/07 06:37:09;;;;;;;;;16.00;12.25;;;;;4.08;75.69;100986.41;5012401;28;45434;-73
2021/12/07 06:39:35;;;;;;;;;10.75;7.25;;;;;4.03;76.10;100982.94;5013081;28;45527;-74
2021/12/07 06:42:01;;;;;;;;;10.50;8.00;;;;;3.70;75.98;100935.91;5014315;28;45411;-73
2021/12/07 06:44:27;;;;;;;;;5.75;5.75;;;;;4.02;76.28;100998.66;5014349;28;45336;-73
2021/12/07 06:46:52;;;;;;;;;9.25;6.50;;;;;3.99;76.98;100994.28;5016289;28;45372;-73
2021/12/07 06:49:19;;;;;;;;;8.00;6.00;;;;;2.96;76.46;100834.06;5014180;28;45795;-73
2021/12/07 06:51:45;;;;;;;;;10.00;7.00;;;;;3.62;75.65;100947.28;5013536;28;45491;-73
2021/12/07 06:54:11;;;;;;;;;10.00;5.00;;;;;3.73;76.23;100956.84;5012472;28;48313;-73
2021/12/07 06:56:37;;;;;;;;;10.25;5.75;;;;;3.82;75.34;100975.13;5014374;28;45459;-73
2021/12/07 06:59:03;;;;;;;;;5.50;5.50;;;;;3.85;76.49;100983.88;5016274;28;45379;-73
2021/12/07 07:01:29;;;;;;;;;9.25;6.75;;;;;3.61;76.26;100934.19;5010699;28;45729;-73
2021/12/07 07:03:54;;;;;;;;;11.50;6.50;;;;;3.78;75.91;100960.31;5008554;28;47165;-73
2021/12/07 07:06:20;;;;;;;;;13.75;5.75;;;;;3.64;76.05;100940.28;5013411;28;45474;-73
2021/12/07 07:08:46;;;;;;;;;9.25;6.25;;;;;3.83;76.76;100966.44;5014268;28;48624;-73
2021/12/07 07:11:11;;;;;;;;;10.00;6.25;;;;;3.64;76.06;100932.44;5014848;28;45625;-73
2021/12/07 07:13:37;;;;;;;;;13.25;9.50;;;;;3.86;76.18;100967.28;5015212;28;48491;-72
2021/12/07 07:16:02;;;;;;;;;10.75;7.00;;;;;3.89;76.89;100955.94;5014882;28;45512;-73
2021/12/07 07:18:28;;;;;;;;;9.50;8.00;;;;;3.77;76.57;100925.44;5015428;28;45339;-73
2021/12/07 07:20:55;;;;;;;;;14.00;7.00;;;;;3.64;75.88;100901.00;5026021;28;45558;-73
2021/12/07 07:23:21;;;;;;;;;10.00;7.00;;;;;3.92;76.80;100940.22;5012234;28;46514;-72
2021/12/07 07:25:47;;;;;;;;;10.00;6.75;;;;;3.68;75.99;100901.00;5015385;28;45510;-73
2021/12/07 07:28:12;;;;;;;;;12.25;9.50;;;;;3.76;75.94;100912.31;5013927;28;45380;-72
2021/12/07 07:30:37;;;;;;;;;12.00;9.25;;;;;3.90;76.54;100930.63;5014818;28;45305;-72
2021/12/07 07:33:03;;;;;;;;;8.75;7.50;;;;;3.80;75.83;100908.84;5014894;28;46018;-72
2021/12/07 07:35:29;;;;;;;;;9.75;7.50;;;;;3.82;75.55;100915.81;5014463;28;45355;-72
2021/12/07 07:37:55;;;;;;;;;8.25;6.25;;;;;3.68;75.70;100883.59;5009463;28;45566;-72
2021/12/07 07:40:22;;;;;;;;;6.50;6.00;;;;;3.81;75.60;100903.59;5013670;28;45564;-72
2021/12/07 07:42:49;;;;;;;;;6.50;5.00;;;;;3.94;76.00;100921.84;5014536;28;45585;-72
2021/12/07 07:45:15;;;;;;;;;11.50;6.00;;;;;3.86;75.26;100903.59;5015011;28;45508;-72
2021/12/07 07:47:41;;;;;;;;;9.25;5.75;;;;;3.95;75.54;100918.38;5014951;28;45589;-72
2021/12/07 07:50:10;;;;;;;;;10.50;7.75;;;;;3.87;76.20;100906.19;5013799;28;45502;-72
2021/12/07 07:52:36;;;;;;;;;10.00;6.00;;;;;3.86;76.25;100893.97;5014995;28;45415;-72
2021/12/07 07:55:02;;;;;;;;;6.50;5.50;;;;;3.77;75.66;100887.91;5014267;28;45757;-72
2021/12/07 07:57:28;;;;;;;;;9.50;6.50;;;;;3.78;75.09;100881.78;5012762;28;45476;-72
2021/12/07 07:59:53;;;;;;;;;10.25;6.00;;;;;3.73;75.18;100860.84;5014346;28;45336;-72
2021/12/07 08:02:19;;;;;;;;;14.25;8.75;;;;;3.99;76.45;100894.78;5013956;28;46241;-72
2021/12/07 08:04:47;;;;;;;;;11.50;5.75;;;;;4.00;75.97;100886.06;5014635;28;45517;-72
2021/12/07 08:07:12;;;;;;;;;16.50;9.75;;;;;3.96;75.67;100891.31;5014351;28;45466;-72
2021/12/07 08:09:38;;;;;;;;;13.00;7.25;;;;;3.87;74.58;100879.13;5014261;28;45470;-72
2021/12/07 08:12:05;;;;;;;;;5.75;4.75;;;;;4.02;75.00;100894.75;5014619;28;46034;-72
2021/12/07 08:14:31;;;;;;;;;15.00;10.75;;;;;3.79;74.67;100860.81;5014218;28;45313;-72
2021/12/07 08:16:56;;;;;;;;;17.25;7.00;;;;;3.92;74.58;100884.34;5014618;28;45356;-72
2021/12/07 08:19:22;;;;;;;;;9.00;6.75;;;;;3.86;74.64;100882.63;5013136;28;45591;-72
2021/12/07 08:21:48;;;;;;;;;11.00;8.75;;;;;4.04;75.46;100915.72;5014126;28;46229;-72
2021/12/07 08:24:13;;;;;;;;;14.50;9.75;;;;;3.97;74.49;100900.91;5014132;28;45501;-73
2021/12/07 08:26:39;;;;;;;;;11.25;8.00;;;;;4.08;75.04;100913.06;5014637;28;45378;-72
2021/12/07 08:29:04;;;;;;;;;11.00;8.75;;;;;4.02;74.94;100897.38;5010607;28;45351;-72
2021/12/07 08:31:30;;;;;;;;;12.00;6.75;;;;;4.06;74.46;100888.66;5013388;28;46490;-72
2021/12/07 08:33:55;;;;;;;;;16.00;10.00;;;;;4.15;73.90;100900.81;5013836;28;45486;-72
2021/12/07 08:36:20;;;;;;;;;18.25;10.25;;;;;4.02;74.22;100886.91;5013743;28;45465;-72
2021/12/07 08:38:49;;;;;;;;;11.75;7.00;;;;;4.06;73.68;100900.88;5013897;28;45724;-72
2021/12/07 08:41:15;;;;;;;;;15.50;7.00;;;;;4.04;74.43;100886.91;5014058;28;46038;-72
2021/12/07 08:43:41;;;;;;;;;14.50;10.50;;;;;4.05;74.29;100879.03;5013527;28;45281;-72
2021/12/07 08:46:08;;;;;;;;;13.75;10.00;;;;;4.16;74.33;100897.31;5013630;28;45375;-72
2021/12/07 08:48:36;;;;;;;;;16.75;8.00;;;;;4.18;74.22;100897.31;5013856;28;45450;-72
2021/12/07 08:51:04;;;;;;;;;9.50;7.00;;;;;4.08;74.18;100878.16;5013094;28;46221;-72
2021/12/07 08:53:30;;;;;;;;;14.25;6.50;;;;;4.17;74.95;100883.31;5013695;28;45336;-72
2021/12/07 09:01:28;;;;;;;;;15.00;6.75;;;;;4.18;74.43;100858.03;5023989;28;45347;-72
2021/12/07 09:03:55;;;;;;;;;11.00;7.50;;;;;4.35;75.06;100877.09;5004874;28;45653;-72
2021/12/07 09:06:21;;;;;;;;;10.25;8.25;;;;;4.18;75.46;100837.94;5004155;28;45619;-72
2021/12/07 09:08:47;;;;;;;;;11.00;7.00;;;;;4.45;75.10;100870.94;5013982;28;45497;-72
2021/12/07 09:11:14;;;;;;;;;11.75;7.75;;;;;4.50;74.13;100877.03;5013578;28;46294;-72
2021/12/07 09:13:40;;;;;;;;;10.00;8.25;;;;;4.47;74.65;100855.19;5013902;28;45485;-72
2021/12/07 09:16:07;;;;;;;;;13.25;7.75;;;;;4.43;74.40;100836.00;5011935;28;45650;-72
2021/12/07 09:18:33;;;;;;;;;11.00;7.00;;;;;4.64;74.66;100844.59;5013547;28;45428;-72
2021/12/07 09:20:59;;;;;;;;;8.50;7.75;;;;;4.62;74.00;100823.63;5013369;28;45446;-73
2021/12/07 09:23:25;;;;;;;;;7.75;7.00;;;;;4.59;73.89;100786.06;5013341;28;45632;-73
2021/12/07 09:25:52;;;;;;;;;16.25;6.75;;;;;4.91;74.75;100812.88;5009669;28;45519;-73
2021/12/07 09:28:18;;;;;;;;;7.00;6.25;;;;;5.01;73.06;100793.53;5009987;28;45530;-73
2021/12/07 09:30:50;;;;;;;;;12.00;6.25;;;;;5.24;72.76;100808.16;5012814;28;45309;-73
2021/12/07 09:33:16;;;;;;;;;4.75;1.00;;;;;5.23;73.15;100781.06;5013516;28;45533;-73
2021/12/07 09:35:42;;;;;;;;;7.50;6.50;;;;;5.64;72.11;100798.03;5013473;28;45402;-73
2021/12/07 09:38:07;;;;;;;;;7.00;6.25;;;;;5.99;71.29;100793.22;5014048;28;45786;-73
2021/12/07 09:40:32;;;;;;;;;5.00;3.75;;;;;6.13;69.98;100765.00;5016444;28;46933;-73
2021/12/07 09:42:58;;;;;;;;;9.50;5.75;;;;;6.22;70.00;100783.25;5012729;28;45672;-73
2021/12/07 09:45:26;;;;;;;;;10.50;7.50;;;;;5.92;70.75;100732.00;5012882;28;47185;-73
2021/12/07 09:47:53;;;;;;;;;6.00;6.00;;;;;5.84;70.06;100733.88;5016273;28;45457;-73
2021/12/07 09:50:21;;;;;;;;;7.00;4.50;;;;;6.01;70.63;100770.44;5016490;28;46036;-73
2021/12/07 09:52:47;;;;;;;;;8.00;7.00;;;;;5.83;70.98;100772.41;5016653;28;45499;-72
2021/12/07 09:55:13;;;;;;;;;13.75;6.00;;;;;5.62;72.15;100772.72;5016422;28;45399;-72
2021/12/07 09:57:39;;;;;;;;;9.50;6.50;;;;;5.29;72.92;100732.00;5016709;28;45551;-72
2021/12/07 10:00:08;;;;;;;;;9.50;6.25;;;;;5.25;72.12;100720.69;5016005;28;45546;-73
2021/12/07 10:02:34;;;;;;;;;8.25;7.25;;;;;5.37;72.47;100738.88;5015015;28;45420;-73
2021/12/07 10:04:59;;;;;;;;;6.25;5.00;;;;;5.24;73.96;100708.47;5017480;28;45401;-73
2021/12/07 10:07:24;;;;;;;;;4.50;4.50;;;;;5.29;74.47;100698.75;5007513;28;45441;-73
2021/12/07 10:09:50;;;;;;;;;5.50;5.50;;;;;5.40;73.70;100715.22;5010393;28;45824;-73
2021/12/07 10:12:21;;;;;;;;;8.00;6.50;;;;;5.56;73.15;100699.25;5014756;28;45538;-73
2021/12/07 10:14:48;;;;;;;;;10.00;5.75;;;;;5.80;72.57;100704.16;5015965;28;45672;-73
2021/12/07 10:17:13;;;;;;;;;9.00;7.25;;;;;5.90;72.99;100702.25;5016551;28;45497;-73
2021/12/07 10:19:44;;;;;;;;;9.00;6.75;;;;;5.97;73.41;100703.06;5016313;28;45423;-73
2021/12/07 10:22:15;;;;;;;;;8.25;3.75;;;;;5.91;72.25;100665.47;5015814;28;45406;-72
2021/12/07 10:24:48;;;;;;;;;8.00;6.75;;;;;5.98;72.98;100689.06;5016572;28;45313;-73
2021/12/07 10:27:37;;;;;;;;;8.00;4.00;;;;;6.00;72.72;100682.88;5027347;28;45475;-73
2021/12/07 10:30:08;;;;;;;;;12.00;7.00;;;;;5.82;72.30;100648.97;5016023;28;46547;-73
2021/12/07 10:32:33;;;;;;;;;8.00;4.50;;;;;6.02;73.07;100678.44;5015890;28;45399;-73
2021/12/07 10:34:59;;;;;;;;;4.00;4.00;;;;;5.99;73.97;100672.38;5015176;28;45565;-73
2021/12/07 10:37:24;;;;;;;;;10.50;6.00;;;;;5.94;72.67;100664.56;5015802;28;45356;-73
2021/12/07 10:39:53;;;;;;;;;13.00;8.75;;;;;5.97;73.64;100655.78;5014119;28;46912;-73
2021/12/07 10:42:26;;;;;;;;;7.75;6.00;;;;;6.04;73.98;100649.53;5015270;28;45650;-73
2021/12/07 10:44:52;;;;;;;;;13.00;8.00;;;;;6.01;73.92;100608.44;5014246;28;45534;-73
2021/12/07 10:47:22;;;;;;;;;11.75;6.25;;;;;6.12;73.96;100600.34;5015938;28;45218;-73
2021/12/07 10:49:51;;;;;;;;;7.25;6.50;;;;;6.19;73.32;100599.34;5016502;28;46295;-73
2021/12/07 10:52:33;;;;;;;;;9.00;3.50;;;;;6.19;73.91;100594.09;5015250;28;45661;-72
2021/12/07 10:55:02;;;;;;;;;10.75;9.75;;;;;6.21;74.08;100602.81;5023538;28;45510;-73
2021/12/07 10:57:31;;;;;;;;;6.50;6.50;;;;;6.05;73.70;100573.31;5014872;28;45446;-73
2021/12/07 11:00:00;;;;;;;;;12.00;7.75;;;;;6.16;73.89;100594.16;5012213;28;45646;-73
2021/12/07 11:02:31;;;;;;;;;12.25;11.25;;;;;6.14;73.81;100593.28;5013126;28;45405;-73
2021/12/07 11:04:57;;;;;;;;;20.50;10.75;;;;;6.15;73.53;100608.19;5016411;28;45431;-73
2021/12/07 11:07:26;;;;;;;;;12.50;9.75;;;;;6.14;74.23;100602.03;5019831;28;45433;-73
2021/12/07 11:10:24;;;;;;;;;11.00;7.50;;;;;6.12;74.16;100600.34;5015114;28;46888;-72
2021/12/07 11:13:08;;;;;;;;;13.00;6.50;;;;;5.99;73.75;100572.56;5029813;28;46873;-72
2021/12/07 11:15:37;;;;;;;;;10.25;8.75;;;;;6.03;74.42;100574.22;5014972;28;45288;-73
2021/12/07 11:18:12;;;;;;;;;10.75;7.50;;;;;5.94;74.73;100541.09;5015032;28;45494;-73
2021/12/07 11:20:38;;;;;;;;;7.25;7.00;;;;;6.07;74.29;100542.63;4999534;28;46472;-72
2021/12/07 11:23:09;;;;;;;;;8.25;8.00;;;;;6.03;74.93;100522.56;5010096;28;45942;-72
2021/12/07 11:31:34;;;;;;;;;12.50;9.50;;;;;6.00;74.59;100505.97;5014487;28;49674;-72
2021/12/07 11:34:11;;;;;;;;;10.75;8.25;;;;;5.99;75.57;100496.38;5014617;28;45399;-72
2021/12/07 11:36:46;;;;;;;;;8.00;7.00;;;;;6.03;75.04;100490.16;5014728;28;45383;-72
2021/12/07 11:39:37;;;;;;;;;14.00;7.25;;;;;6.03;74.70;100485.81;5014790;28;45546;-72
2021/12/07 11:42:13;;;;;;;;;9.00;7.00;;;;;5.99;74.99;100475.38;5014388;28;46112;-72
2021/12/07 11:44:46;;;;;;;;;7.00;5.50;;;;;6.05;75.77;100467.34;4999563;28;45815;-72
2021/12/07 11:47:11;;;;;;;;;11.50;7.25;;;;;5.95;75.33;100453.56;5010372;28;45454;-72
2021/12/07 11:49:38;;;;;;;;;7.50;6.00;;;;;5.91;74.80;100447.47;5014559;28;45504;-73
2021/12/07 11:52:05;;;;;;;;;9.50;8.25;;;;;5.96;75.21;100443.91;5014146;28;46026;-73
2021/12/07 11:54:34;;;;;;;;;10.50;6.00;;;;;6.07;75.57;100448.06;5014265;28;45455;-72
2021/12/07 11:57:02;;;;;;;;;10.00;6.50;;;;;6.08;75.80;100441.03;5014547;28;45463;-72
2021/12/07 11:59:28;;;;;;;;;13.25;8.00;;;;;5.95;75.27;100402.78;5015058;28;45387;-73
2021/12/07 12:01:54;;;;;;;;;11.00;7.75;;;;;6.10;75.94;100413.81;5014566;28;46157;-73
2021/12/07 12:04:21;;;;;;;;;11.25;4.00;;;;;6.13;75.40;100397.13;5014477;28;45857;-73
2021/12/07 12:06:49;;;;;;;;;6.50;6.50;;;;;6.06;75.05;100364.88;5014512;28;45449;-72
2021/12/07 12:09:16;;;;;;;;;8.25;4.00;;;;;6.13;75.76;100386.63;5013088;28;45344;-73
2021/12/07 12:12:09;;;;;;;;;6.50;6.00;;;;;6.15;75.79;100382.22;5012931;28;46203;-73
2021/12/07 12:14:46;;;;;;;;;12.75;9.00;;;;;6.18;75.43;100371.63;5014265;28;45610;-72
2021/12/07 12:17:20;;;;;;;;;8.50;6.00;;;;;6.13;75.10;100355.09;5010098;28;45421;-72
2021/12/07 12:20:13;;;;;;;;;11.00;6.75;;;;;6.20;75.85;100359.31;5014573;28;45441;-72
2021/12/07 12:22:52;;;;;;;;;9.00;6.00;;;;;6.18;75.41;100337.47;4999008;28;46195;-72
2021/12/07 12:25:22;;;;;;;;;5.00;5.00;;;;;6.04;75.13;100308.88;5011794;28;45909;-72
2021/12/07 12:27:50;;;;;;;;;5.50;4.00;;;;;6.24;75.13;100336.47;5014202;28;45520;-72
2021/12/07 12:30:28;;;;;;;;;7.00;5.00;;;;;6.27;75.25;100326.75;5013941;28;45446;-73
2021/12/07 12:33:03;;;;;;;;;10.25;7.75;;;;;6.25;75.87;100315.41;5014009;28;46108;-73
2021/12/07 12:35:40;;;;;;;;;6.00;4.50;;;;;6.23;75.65;100288.28;5014361;28;45496;-73
2021/12/07 12:38:25;;;;;;;;;8.50;4.75;;;;;6.19;75.48;100270.03;5008996;28;45465;-73
2021/12/07 12:40:57;;;;;;;;;5.50;3.75;;;;;6.23;75.64;100276.91;5008583;28;45384;-73
2021/12/07 12:43:38;;;;;;;;;5.75;3.25;;;;;6.29;75.62;100276.78;5013623;28;45920;-73
2021/12/07 12:46:04;;;;;;;;;3.25;2.75;;;;;6.27;75.67;100261.06;5013567;28;45815;-73
2021/12/07 12:48:32;;;;;;;;;6.75;3.00;;;;;6.29;75.30;100259.22;5012651;28;45549;-73
2021/12/07 12:50:58;;;;;;;;;9.25;5.00;;;;;6.23;75.45;100234.88;5014012;28;45351;-73
2021/12/07 12:53:31;;;;;;;;;6.25;3.75;;;;;6.34;75.76;100246.00;5011064;28;46262;-73
2021/12/07 12:55:57;;;;;;;;;7.75;4.50;;;;;6.28;75.37;100222.50;5014349;28;45879;-72
2021/12/07 12:58:29;;;;;;;;;12.50;6.50;;;;;6.35;75.34;100229.31;5013765;28;45751;-73
2021/12/07 13:01:09;;;;;;;;;7.25;6.00;;;;;6.37;75.23;100228.38;5013758;28;45593;-73
2021/12/07 13:03:54;;;;;;;;;4.25;3.00;;;;;6.33;74.27;100220.63;5024957;28;48148;-73
2021/12/07 13:06:25;;;;;;;;;10.00;3.75;;;;;6.30;75.35;100213.69;5014166;28;45549;-73
2021/12/07 13:08:53;;;;;;;;;6.50;4.00;;;;;6.04;75.82;100153.03;5024563;28;45623;-73
2021/12/07 13:11:37;;;;;;;;;7.75;3.00;;;;;6.36;75.33;100218.78;5014045;28;45399;-73
2021/12/07 13:14:11;;;;;;;;;7.50;4.00;;;;;6.16;75.06;100155.34;5014159;28;46418;-74